sensor_id;sensor_type;location;lat;lon;timestamp;temperature;humidity
12887;DHT22;6511;49.746;6.094;2022-09-09T00:02:23;13.80;99.90
12887;DHT22;6511;49.746;6.094;2022-09-09T00:07:59;13.90;99.90
12887;DHT22;6511;49.746;6.094;2022-09-09T00:10:29;13.90;99.90
12887;DHT22;6511;49.746;6.094;2022-09-09T00:15:59;13.90;99.90
12887;DHT22;6511;49.746;6.094;2022-09-09T00:18:45;13.90;99.90
12887;DHT22;6511;49.746;6.094;2022-09-09T00:21:14;13.80;99.90
12887;DHT22;6511;49.746;6.094;2022-09-09T00:23:55;13.80;99.90
12887;DHT22;6511;49.746;6.094;2022-09-09T00:26:38;13.80;99.90
12887;DHT22;6511;49.746;6.094;2022-09-09T00:29:21;13.80;99.90
12887;DHT22;6511;49.746;6.094;2022-09-09T00:31:48;13.80;99.90
12887;DHT22;6511;49.746;6.094;2022-09-09T00:34:24;13.80;99.90
12887;DHT22;6511;49.746;6.094;2022-09-09T00:36:52;13.80;99.90
12887;DHT22;6511;49.746;6.094;2022-09-09T00:39:37;13.70;99.90
12887;DHT22;6511;49.746;6.094;2022-09-09T00:44:36;13.60;99.90
12887;DHT22;6511;49.746;6.094;2022-09-09T00:55:25;13.40;99.90
12887;DHT22;6511;49.746;6.094;2022-09-09T00:57:53;13.40;99.90
12887;DHT22;6511;49.746;6.094;2022-09-09T01:00:27;13.50;99.90
12887;DHT22;6511;49.746;6.094;2022-09-09T01:11:24;13.40;99.90
12887;DHT22;6511;49.746;6.094;2022-09-09T01:14:22;13.40;99.90
12887;DHT22;6511;49.746;6.094;2022-09-09T01:16:54;13.50;99.90
12887;DHT22;6511;49.746;6.094;2022-09-09T01:19:45;13.40;99.90
12887;DHT22;6511;49.746;6.094;2022-09-09T01:27:49;13.40;99.90
12887;DHT22;6511;49.746;6.094;2022-09-09T01:30:18;13.40;99.90
12887;DHT22;6511;49.746;6.094;2022-09-09T01:32:48;13.50;99.90
12887;DHT22;6511;49.746;6.094;2022-09-09T01:35:57;13.50;99.90
12887;DHT22;6511;49.746;6.094;2022-09-09T01:38:26;13.60;99.90
12887;DHT22;6511;49.746;6.094;2022-09-09T01:40:53;13.50;99.90
12887;DHT22;6511;49.746;6.094;2022-09-09T01:43:21;13.60;99.90
12887;DHT22;6511;49.746;6.094;2022-09-09T01:45:50;13.50;99.90
12887;DHT22;6511;49.746;6.094;2022-09-09T01:48:18;13.60;99.90
12887;DHT22;6511;49.746;6.094;2022-09-09T01:50:44;13.60;99.90
12887;DHT22;6511;49.746;6.094;2022-09-09T01:53:11;13.60;99.90
12887;DHT22;6511;49.746;6.094;2022-09-09T01:55:40;13.60;99.90
12887;DHT22;6511;49.746;6.094;2022-09-09T01:58:34;13.50;99.90
12887;DHT22;6511;49.746;6.094;2022-09-09T02:03:52;13.60;99.90
12887;DHT22;6511;49.746;6.094;2022-09-09T02:06:29;13.60;99.90
12887;DHT22;6511;49.746;6.094;2022-09-09T02:08:57;13.60;99.90
12887;DHT22;6511;49.746;6.094;2022-09-09T02:11:27;13.60;99.90
12887;DHT22;6511;49.746;6.094;2022-09-09T02:14:00;13.50;99.90
12887;DHT22;6511;49.746;6.094;2022-09-09T02:16:42;13.50;99.90
12887;DHT22;6511;49.746;6.094;2022-09-09T02:19:29;13.50;99.90
12887;DHT22;6511;49.746;6.094;2022-09-09T02:21:59;13.60;99.90
12887;DHT22;6511;49.746;6.094;2022-09-09T02:24:27;13.80;99.90
12887;DHT22;6511;49.746;6.094;2022-09-09T02:26:55;13.80;99.90
12887;DHT22;6511;49.746;6.094;2022-09-09T02:29:38;13.80;99.90
12887;DHT22;6511;49.746;6.094;2022-09-09T02:32:07;14.00;99.90
12887;DHT22;6511;49.746;6.094;2022-09-09T02:34:37;14.00;99.90
12887;DHT22;6511;49.746;6.094;2022-09-09T02:37:08;14.00;99.90
12887;DHT22;6511;49.746;6.094;2022-09-09T02:39:35;13.90;99.90
12887;DHT22;6511;49.746;6.094;2022-09-09T02:42:00;13.90;99.90
12887;DHT22;6511;49.746;6.094;2022-09-09T02:44:29;13.90;99.90
12887;DHT22;6511;49.746;6.094;2022-09-09T02:52:14;13.90;99.90
12887;DHT22;6511;49.746;6.094;2022-09-09T02:54:44;13.90;99.90
12887;DHT22;6511;49.746;6.094;2022-09-09T02:57:17;13.80;99.90
12887;DHT22;6511;49.746;6.094;2022-09-09T02:59:45;13.80;99.90
12887;DHT22;6511;49.746;6.094;2022-09-09T03:02:12;13.80;99.90
12887;DHT22;6511;49.746;6.094;2022-09-09T03:04:38;13.90;99.90
12887;DHT22;6511;49.746;6.094;2022-09-09T03:07:04;14.00;99.90
12887;DHT22;6511;49.746;6.094;2022-09-09T03:09:30;14.10;99.90
12887;DHT22;6511;49.746;6.094;2022-09-09T03:11:56;14.10;99.90
12887;DHT22;6511;49.746;6.094;2022-09-09T03:14:22;14.10;99.90
12887;DHT22;6511;49.746;6.094;2022-09-09T03:16:51;14.20;99.90
12887;DHT22;6511;49.746;6.094;2022-09-09T03:19:17;14.20;99.90
12887;DHT22;6511;49.746;6.094;2022-09-09T03:21:44;14.20;99.90
12887;DHT22;6511;49.746;6.094;2022-09-09T03:24:10;14.10;99.90
12887;DHT22;6511;49.746;6.094;2022-09-09T03:26:36;14.00;99.90
12887;DHT22;6511;49.746;6.094;2022-09-09T03:29:06;14.00;99.90
12887;DHT22;6511;49.746;6.094;2022-09-09T03:31:33;14.00;99.90
12887;DHT22;6511;49.746;6.094;2022-09-09T03:33:59;14.00;99.90
12887;DHT22;6511;49.746;6.094;2022-09-09T03:36:26;14.00;99.90
12887;DHT22;6511;49.746;6.094;2022-09-09T03:38:52;13.90;99.90
12887;DHT22;6511;49.746;6.094;2022-09-09T03:41:18;13.90;99.90
12887;DHT22;6511;49.746;6.094;2022-09-09T03:43:44;13.90;99.90
12887;DHT22;6511;49.746;6.094;2022-09-09T03:46:10;14.00;99.90
12887;DHT22;6511;49.746;6.094;2022-09-09T03:48:35;14.10;99.90
12887;DHT22;6511;49.746;6.094;2022-09-09T03:51:04;14.20;99.90
12887;DHT22;6511;49.746;6.094;2022-09-09T03:53:30;14.20;99.90
12887;DHT22;6511;49.746;6.094;2022-09-09T03:55:57;14.20;99.90
12887;DHT22;6511;49.746;6.094;2022-09-09T03:58:25;14.20;99.90
12887;DHT22;6511;49.746;6.094;2022-09-09T04:01:07;14.20;99.90
12887;DHT22;6511;49.746;6.094;2022-09-09T04:03:36;14.20;99.90
12887;DHT22;6511;49.746;6.094;2022-09-09T04:06:03;14.10;99.90
12887;DHT22;6511;49.746;6.094;2022-09-09T04:08:30;14.20;99.90
12887;DHT22;6511;49.746;6.094;2022-09-09T04:10:59;14.20;99.90
12887;DHT22;6511;49.746;6.094;2022-09-09T04:13:33;14.30;99.90
12887;DHT22;6511;49.746;6.094;2022-09-09T04:16:00;14.20;99.90
12887;DHT22;6511;49.746;6.094;2022-09-09T04:18:27;14.10;99.90
12887;DHT22;6511;49.746;6.094;2022-09-09T04:20:54;14.20;99.90
12887;DHT22;6511;49.746;6.094;2022-09-09T04:23:23;14.20;99.90
12887;DHT22;6511;49.746;6.094;2022-09-09T04:25:51;14.10;99.90
12887;DHT22;6511;49.746;6.094;2022-09-09T04:28:18;14.10;99.90
12887;DHT22;6511;49.746;6.094;2022-09-09T04:30:45;14.10;99.90
12887;DHT22;6511;49.746;6.094;2022-09-09T04:33:11;14.20;99.90
12887;DHT22;6511;49.746;6.094;2022-09-09T04:35:37;14.20;99.90
12887;DHT22;6511;49.746;6.094;2022-09-09T04:38:04;14.20;99.90
12887;DHT22;6511;49.746;6.094;2022-09-09T04:40:31;14.20;99.90
12887;DHT22;6511;49.746;6.094;2022-09-09T04:43:01;14.30;99.90
12887;DHT22;6511;49.746;6.094;2022-09-09T04:45:29;14.30;99.90
12887;DHT22;6511;49.746;6.094;2022-09-09T04:47:54;14.30;99.90
12887;DHT22;6511;49.746;6.094;2022-09-09T04:50:20;14.20;99.90
12887;DHT22;6511;49.746;6.094;2022-09-09T04:52:46;14.20;99.90
12887;DHT22;6511;49.746;6.094;2022-09-09T04:55:12;14.10;99.90
12887;DHT22;6511;49.746;6.094;2022-09-09T04:57:38;14.10;99.90
12887;DHT22;6511;49.746;6.094;2022-09-09T05:00:05;14.10;99.90
12887;DHT22;6511;49.746;6.094;2022-09-09T05:02:31;14.20;99.90
12887;DHT22;6511;49.746;6.094;2022-09-09T05:04:57;14.20;99.90
12887;DHT22;6511;49.746;6.094;2022-09-09T05:07:23;14.30;99.90
12887;DHT22;6511;49.746;6.094;2022-09-09T05:09:49;14.30;99.90
12887;DHT22;6511;49.746;6.094;2022-09-09T05:12:15;14.40;99.90
12887;DHT22;6511;49.746;6.094;2022-09-09T05:14:43;14.30;99.90
12887;DHT22;6511;49.746;6.094;2022-09-09T05:17:09;14.40;99.90
12887;DHT22;6511;49.746;6.094;2022-09-09T05:19:34;14.40;99.90
12887;DHT22;6511;49.746;6.094;2022-09-09T05:22:00;14.50;99.90
12887;DHT22;6511;49.746;6.094;2022-09-09T05:24:26;14.50;99.90
12887;DHT22;6511;49.746;6.094;2022-09-09T05:26:52;14.50;99.90
12887;DHT22;6511;49.746;6.094;2022-09-09T05:29:18;14.50;99.90
12887;DHT22;6511;49.746;6.094;2022-09-09T05:31:45;14.60;99.90
12887;DHT22;6511;49.746;6.094;2022-09-09T05:34:11;14.60;99.90
12887;DHT22;6511;49.746;6.094;2022-09-09T05:36:37;14.60;99.90
12887;DHT22;6511;49.746;6.094;2022-09-09T05:39:03;14.60;99.90
12887;DHT22;6511;49.746;6.094;2022-09-09T05:41:29;14.60;99.90
12887;DHT22;6511;49.746;6.094;2022-09-09T05:43:55;14.60;99.90
12887;DHT22;6511;49.746;6.094;2022-09-09T05:46:23;14.60;99.90
12887;DHT22;6511;49.746;6.094;2022-09-09T05:48:50;14.70;99.90
12887;DHT22;6511;49.746;6.094;2022-09-09T05:51:24;14.70;99.90
12887;DHT22;6511;49.746;6.094;2022-09-09T05:53:52;14.70;99.90
12887;DHT22;6511;49.746;6.094;2022-09-09T05:56:22;14.80;99.90
12887;DHT22;6511;49.746;6.094;2022-09-09T05:58:50;14.80;99.90
12887;DHT22;6511;49.746;6.094;2022-09-09T06:01:20;14.80;99.90
12887;DHT22;6511;49.746;6.094;2022-09-09T06:03:47;14.80;99.90
12887;DHT22;6511;49.746;6.094;2022-09-09T06:06:16;14.80;99.90
12887;DHT22;6511;49.746;6.094;2022-09-09T06:08:44;14.70;99.90
12887;DHT22;6511;49.746;6.094;2022-09-09T06:11:22;14.70;99.90
12887;DHT22;6511;49.746;6.094;2022-09-09T06:13:48;14.70;99.90
12887;DHT22;6511;49.746;6.094;2022-09-09T06:16:18;14.70;99.90
12887;DHT22;6511;49.746;6.094;2022-09-09T06:18:44;14.80;99.90
12887;DHT22;6511;49.746;6.094;2022-09-09T06:21:24;14.80;99.90
12887;DHT22;6511;49.746;6.094;2022-09-09T06:23:50;14.80;99.90
12887;DHT22;6511;49.746;6.094;2022-09-09T06:26:24;14.90;99.90
12887;DHT22;6511;49.746;6.094;2022-09-09T06:28:51;15.00;99.90
12887;DHT22;6511;49.746;6.094;2022-09-09T06:31:19;15.10;99.90
12887;DHT22;6511;49.746;6.094;2022-09-09T06:33:50;15.10;99.90
12887;DHT22;6511;49.746;6.094;2022-09-09T06:36:21;15.10;99.90
12887;DHT22;6511;49.746;6.094;2022-09-09T06:38:48;15.10;99.90
12887;DHT22;6511;49.746;6.094;2022-09-09T06:41:16;15.20;99.90
12887;DHT22;6511;49.746;6.094;2022-09-09T06:43:42;15.20;99.90
12887;DHT22;6511;49.746;6.094;2022-09-09T06:46:19;15.30;99.90
12887;DHT22;6511;49.746;6.094;2022-09-09T06:48:45;15.40;99.90
12887;DHT22;6511;49.746;6.094;2022-09-09T06:51:11;15.40;99.90
12887;DHT22;6511;49.746;6.094;2022-09-09T06:53:39;15.50;99.90
12887;DHT22;6511;49.746;6.094;2022-09-09T06:58:41;15.50;99.90
12887;DHT22;6511;49.746;6.094;2022-09-09T07:01:10;15.50;99.90
12887;DHT22;6511;49.746;6.094;2022-09-09T07:03:38;15.50;99.90
12887;DHT22;6511;49.746;6.094;2022-09-09T07:06:04;15.60;99.90
12887;DHT22;6511;49.746;6.094;2022-09-09T07:08:30;15.60;99.90
12887;DHT22;6511;49.746;6.094;2022-09-09T07:11:05;15.70;99.90
12887;DHT22;6511;49.746;6.094;2022-09-09T07:13:31;15.70;99.90
12887;DHT22;6511;49.746;6.094;2022-09-09T07:16:08;15.70;99.90
12887;DHT22;6511;49.746;6.094;2022-09-09T07:18:35;15.70;99.90
12887;DHT22;6511;49.746;6.094;2022-09-09T07:21:02;15.80;99.90
12887;DHT22;6511;49.746;6.094;2022-09-09T07:23:29;15.90;99.90
12887;DHT22;6511;49.746;6.094;2022-09-09T07:25:55;16.00;99.90
12887;DHT22;6511;49.746;6.094;2022-09-09T07:28:21;16.10;99.90
12887;DHT22;6511;49.746;6.094;2022-09-09T07:30:58;16.00;99.90
12887;DHT22;6511;49.746;6.094;2022-09-09T07:33:25;15.90;99.90
12887;DHT22;6511;49.746;6.094;2022-09-09T07:35:51;15.90;99.90
12887;DHT22;6511;49.746;6.094;2022-09-09T07:38:17;16.00;99.90
12887;DHT22;6511;49.746;6.094;2022-09-09T07:40:44;16.00;99.90
12887;DHT22;6511;49.746;6.094;2022-09-09T07:43:10;16.10;99.90
12887;DHT22;6511;49.746;6.094;2022-09-09T07:45:36;16.00;99.90
12887;DHT22;6511;49.746;6.094;2022-09-09T07:48:02;16.10;99.90
12887;DHT22;6511;49.746;6.094;2022-09-09T07:50:28;16.30;99.90
12887;DHT22;6511;49.746;6.094;2022-09-09T07:52:54;16.50;99.90
12887;DHT22;6511;49.746;6.094;2022-09-09T07:55:23;16.50;99.90
12887;DHT22;6511;49.746;6.094;2022-09-09T07:57:53;16.50;99.90
12887;DHT22;6511;49.746;6.094;2022-09-09T08:00:18;16.40;99.90
12887;DHT22;6511;49.746;6.094;2022-09-09T08:02:45;16.40;99.90
12887;DHT22;6511;49.746;6.094;2022-09-09T08:05:12;16.30;99.90
12887;DHT22;6511;49.746;6.094;2022-09-09T08:07:38;16.10;99.90
12887;DHT22;6511;49.746;6.094;2022-09-09T08:10:04;16.10;99.90
12887;DHT22;6511;49.746;6.094;2022-09-09T08:12:30;16.10;99.90
12887;DHT22;6511;49.746;6.094;2022-09-09T08:14:55;16.20;99.90
12887;DHT22;6511;49.746;6.094;2022-09-09T08:17:21;16.40;99.90
12887;DHT22;6511;49.746;6.094;2022-09-09T08:19:47;16.40;99.90
12887;DHT22;6511;49.746;6.094;2022-09-09T08:22:12;16.50;99.90
12887;DHT22;6511;49.746;6.094;2022-09-09T08:24:38;16.50;99.90
12887;DHT22;6511;49.746;6.094;2022-09-09T08:27:04;16.50;99.90
12887;DHT22;6511;49.746;6.094;2022-09-09T08:29:30;16.70;99.90
12887;DHT22;6511;49.746;6.094;2022-09-09T08:31:58;16.60;99.90
12887;DHT22;6511;49.746;6.094;2022-09-09T08:34:25;16.70;99.90
12887;DHT22;6511;49.746;6.094;2022-09-09T08:36:53;16.80;99.90
12887;DHT22;6511;49.746;6.094;2022-09-09T08:39:20;16.80;99.90
12887;DHT22;6511;49.746;6.094;2022-09-09T08:57:57;17.70;99.90
12887;DHT22;6511;49.746;6.094;2022-09-09T09:00:35;17.90;99.90
12887;DHT22;6511;49.746;6.094;2022-09-09T09:03:33;18.00;99.90
12887;DHT22;6511;49.746;6.094;2022-09-09T09:10:24;17.90;99.90
12887;DHT22;6511;49.746;6.094;2022-09-09T09:12:23;17.70;99.90
12887;DHT22;6511;49.746;6.094;2022-09-09T09:14:50;17.50;99.90
12887;DHT22;6511;49.746;6.094;2022-09-09T09:19:44;17.60;99.90
12887;DHT22;6511;49.746;6.094;2022-09-09T09:25:05;17.90;99.90
12887;DHT22;6511;49.746;6.094;2022-09-09T09:28:01;18.20;99.90
12887;DHT22;6511;49.746;6.094;2022-09-09T09:30:44;18.10;99.90
12887;DHT22;6511;49.746;6.094;2022-09-09T09:35:59;17.70;99.90
12887;DHT22;6511;49.746;6.094;2022-09-09T09:38:27;17.70;99.90
12887;DHT22;6511;49.746;6.094;2022-09-09T09:40:55;17.60;99.90
12887;DHT22;6511;49.746;6.094;2022-09-09T09:45:52;17.80;99.90
12887;DHT22;6511;49.746;6.094;2022-09-09T09:48:17;18.00;99.90
12887;DHT22;6511;49.746;6.094;2022-09-09T09:51:09;18.00;99.90
12887;DHT22;6511;49.746;6.094;2022-09-09T09:53:38;18.00;99.90
12887;DHT22;6511;49.746;6.094;2022-09-09T09:56:09;18.10;99.90
12887;DHT22;6511;49.746;6.094;2022-09-09T10:01:27;18.30;99.90
12887;DHT22;6511;49.746;6.094;2022-09-09T10:06:38;18.40;99.90
12887;DHT22;6511;49.746;6.094;2022-09-09T10:09:22;18.70;99.90
12887;DHT22;6511;49.746;6.094;2022-09-09T10:22:45;18.60;99.90
12887;DHT22;6511;49.746;6.094;2022-09-09T10:31:02;18.50;99.90
12887;DHT22;6511;49.746;6.094;2022-09-09T10:33:37;18.60;99.90
12887;DHT22;6511;49.746;6.094;2022-09-09T10:36:23;18.60;99.90
12887;DHT22;6511;49.746;6.094;2022-09-09T10:41:54;19.10;99.90
12887;DHT22;6511;49.746;6.094;2022-09-09T10:49:59;19.40;99.90
12887;DHT22;6511;49.746;6.094;2022-09-09T10:52:41;19.50;99.90
12887;DHT22;6511;49.746;6.094;2022-09-09T10:55:18;19.30;99.90
12887;DHT22;6511;49.746;6.094;2022-09-09T10:57:52;19.40;99.90
12887;DHT22;6511;49.746;6.094;2022-09-09T11:00:23;19.60;99.90
12887;DHT22;6511;49.746;6.094;2022-09-09T11:02:55;19.80;99.90
12887;DHT22;6511;49.746;6.094;2022-09-09T11:05:39;19.70;99.90
12887;DHT22;6511;49.746;6.094;2022-09-09T11:08:12;19.60;99.90
12887;DHT22;6511;49.746;6.094;2022-09-09T11:10:59;19.40;99.90
12887;DHT22;6511;49.746;6.094;2022-09-09T11:16:17;19.70;99.90
12887;DHT22;6511;49.746;6.094;2022-09-09T11:18:45;19.60;99.90
12887;DHT22;6511;49.746;6.094;2022-09-09T11:21:42;19.90;99.90
12887;DHT22;6511;49.746;6.094;2022-09-09T11:24:32;19.70;99.90
12887;DHT22;6511;49.746;6.094;2022-09-09T11:41:04;19.40;99.90
12887;DHT22;6511;49.746;6.094;2022-09-09T11:43:33;19.60;99.90
12887;DHT22;6511;49.746;6.094;2022-09-09T11:46:04;19.90;99.90
12887;DHT22;6511;49.746;6.094;2022-09-09T11:48:44;20.00;99.90
12887;DHT22;6511;49.746;6.094;2022-09-09T11:51:27;19.90;99.90
12887;DHT22;6511;49.746;6.094;2022-09-09T11:53:54;20.20;99.90
12887;DHT22;6511;49.746;6.094;2022-09-09T11:56:53;20.40;99.90
12887;DHT22;6511;49.746;6.094;2022-09-09T11:59:30;20.30;99.90
12887;DHT22;6511;49.746;6.094;2022-09-09T12:02:22;20.30;99.90
12887;DHT22;6511;49.746;6.094;2022-09-09T12:07:33;20.60;99.90
12887;DHT22;6511;49.746;6.094;2022-09-09T12:10:20;20.40;99.90
12887;DHT22;6511;49.746;6.094;2022-09-09T12:12:46;20.40;99.90
12887;DHT22;6511;49.746;6.094;2022-09-09T12:17:52;20.40;99.90
12887;DHT22;6511;49.746;6.094;2022-09-09T12:36:40;17.80;99.90
12887;DHT22;6511;49.746;6.094;2022-09-09T12:39:18;18.20;99.90
12887;DHT22;6511;49.746;6.094;2022-09-09T12:41:54;18.60;99.90
12887;DHT22;6511;49.746;6.094;2022-09-09T12:44:22;18.90;99.90
12887;DHT22;6511;49.746;6.094;2022-09-09T12:46:48;19.10;99.90
12887;DHT22;6511;49.746;6.094;2022-09-09T12:49:35;18.90;99.90
12887;DHT22;6511;49.746;6.094;2022-09-09T12:52:14;18.90;99.90
12887;DHT22;6511;49.746;6.094;2022-09-09T12:54:44;18.50;99.90
12887;DHT22;6511;49.746;6.094;2022-09-09T12:57:13;18.50;99.90
12887;DHT22;6511;49.746;6.094;2022-09-09T12:59:41;18.70;99.90
12887;DHT22;6511;49.746;6.094;2022-09-09T13:02:22;18.70;99.90
12887;DHT22;6511;49.746;6.094;2022-09-09T13:04:48;18.70;99.90
12887;DHT22;6511;49.746;6.094;2022-09-09T13:07:16;18.80;99.90
12887;DHT22;6511;49.746;6.094;2022-09-09T13:09:43;18.60;99.90
12887;DHT22;6511;49.746;6.094;2022-09-09T13:12:14;18.20;99.90
12887;DHT22;6511;49.746;6.094;2022-09-09T13:14:44;17.80;99.90
12887;DHT22;6511;49.746;6.094;2022-09-09T13:17:21;17.20;99.90
12887;DHT22;6511;49.746;6.094;2022-09-09T13:19:48;16.60;99.90
12887;DHT22;6511;49.746;6.094;2022-09-09T13:22:30;16.30;99.90
12887;DHT22;6511;49.746;6.094;2022-09-09T13:27:35;15.80;99.90
12887;DHT22;6511;49.746;6.094;2022-09-09T13:30:40;15.80;99.90
12887;DHT22;6511;49.746;6.094;2022-09-09T13:38:33;15.70;99.90
12887;DHT22;6511;49.746;6.094;2022-09-09T13:41:09;15.70;99.90
12887;DHT22;6511;49.746;6.094;2022-09-09T13:43:45;15.70;99.90
12887;DHT22;6511;49.746;6.094;2022-09-09T13:48:58;15.70;99.90
12887;DHT22;6511;49.746;6.094;2022-09-09T13:51:48;15.60;99.90
12887;DHT22;6511;49.746;6.094;2022-09-09T13:54:20;15.60;99.90
12887;DHT22;6511;49.746;6.094;2022-09-09T13:56:46;15.70;99.90
12887;DHT22;6511;49.746;6.094;2022-09-09T13:59:15;15.80;99.90
12887;DHT22;6511;49.746;6.094;2022-09-09T14:01:41;15.80;99.90
12887;DHT22;6511;49.746;6.094;2022-09-09T14:04:08;15.80;99.90
12887;DHT22;6511;49.746;6.094;2022-09-09T14:06:37;15.90;99.90
12887;DHT22;6511;49.746;6.094;2022-09-09T14:09:11;16.00;99.90
12887;DHT22;6511;49.746;6.094;2022-09-09T14:11:38;16.10;99.90
12887;DHT22;6511;49.746;6.094;2022-09-09T14:14:04;16.20;99.90
12887;DHT22;6511;49.746;6.094;2022-09-09T14:16:30;16.50;99.90
12887;DHT22;6511;49.746;6.094;2022-09-09T14:18:56;16.60;99.90
12887;DHT22;6511;49.746;6.094;2022-09-09T14:21:23;16.60;99.90
12887;DHT22;6511;49.746;6.094;2022-09-09T14:23:48;16.80;99.90
12887;DHT22;6511;49.746;6.094;2022-09-09T14:26:14;16.80;99.90
12887;DHT22;6511;49.746;6.094;2022-09-09T14:28:40;17.00;99.90
12887;DHT22;6511;49.746;6.094;2022-09-09T14:31:06;17.00;99.90
12887;DHT22;6511;49.746;6.094;2022-09-09T14:33:32;17.00;99.90
12887;DHT22;6511;49.746;6.094;2022-09-09T14:35:59;17.00;99.90
12887;DHT22;6511;49.746;6.094;2022-09-09T14:38:29;17.00;99.90
12887;DHT22;6511;49.746;6.094;2022-09-09T14:40:55;17.00;99.90
12887;DHT22;6511;49.746;6.094;2022-09-09T14:43:22;17.10;99.90
12887;DHT22;6511;49.746;6.094;2022-09-09T14:45:47;17.20;99.90
12887;DHT22;6511;49.746;6.094;2022-09-09T14:48:17;17.40;99.90
12887;DHT22;6511;49.746;6.094;2022-09-09T14:50:43;17.30;99.90
12887;DHT22;6511;49.746;6.094;2022-09-09T14:53:09;17.30;99.90
12887;DHT22;6511;49.746;6.094;2022-09-09T14:55:36;17.20;99.90
12887;DHT22;6511;49.746;6.094;2022-09-09T14:58:02;17.20;99.90
12887;DHT22;6511;49.746;6.094;2022-09-09T15:00:27;16.90;99.90
12887;DHT22;6511;49.746;6.094;2022-09-09T15:02:53;16.80;99.90
12887;DHT22;6511;49.746;6.094;2022-09-09T15:05:19;16.70;99.90
12887;DHT22;6511;49.746;6.094;2022-09-09T15:07:45;16.70;99.90
12887;DHT22;6511;49.746;6.094;2022-09-09T15:10:11;16.70;99.90
12887;DHT22;6511;49.746;6.094;2022-09-09T15:12:37;16.60;99.90
12887;DHT22;6511;49.746;6.094;2022-09-09T15:15:04;16.60;99.90
12887;DHT22;6511;49.746;6.094;2022-09-09T15:17:30;16.60;99.90
12887;DHT22;6511;49.746;6.094;2022-09-09T15:19:56;16.50;99.90
12887;DHT22;6511;49.746;6.094;2022-09-09T15:22:22;16.40;99.90
12887;DHT22;6511;49.746;6.094;2022-09-09T15:24:49;16.30;99.90
12887;DHT22;6511;49.746;6.094;2022-09-09T15:27:15;16.00;99.90
12887;DHT22;6511;49.746;6.094;2022-09-09T15:29:41;15.80;99.90
12887;DHT22;6511;49.746;6.094;2022-09-09T15:32:12;15.50;99.90
12887;DHT22;6511;49.746;6.094;2022-09-09T15:34:38;15.40;99.90
12887;DHT22;6511;49.746;6.094;2022-09-09T15:37:05;15.30;99.90
12887;DHT22;6511;49.746;6.094;2022-09-09T15:39:31;15.20;99.90
12887;DHT22;6511;49.746;6.094;2022-09-09T15:41:57;15.30;99.90
12887;DHT22;6511;49.746;6.094;2022-09-09T15:44:22;15.30;99.90
12887;DHT22;6511;49.746;6.094;2022-09-09T15:46:52;15.40;99.90
12887;DHT22;6511;49.746;6.094;2022-09-09T15:49:21;15.50;99.90
12887;DHT22;6511;49.746;6.094;2022-09-09T15:51:56;15.50;99.90
12887;DHT22;6511;49.746;6.094;2022-09-09T15:54:24;15.60;99.90
12887;DHT22;6511;49.746;6.094;2022-09-09T15:56:56;15.70;99.90
12887;DHT22;6511;49.746;6.094;2022-09-09T15:59:27;15.70;99.90
12887;DHT22;6511;49.746;6.094;2022-09-09T16:01:53;15.80;99.90
12887;DHT22;6511;49.746;6.094;2022-09-09T16:04:21;15.80;99.90
12887;DHT22;6511;49.746;6.094;2022-09-09T16:07:04;16.00;99.90
12887;DHT22;6511;49.746;6.094;2022-09-09T16:09:31;16.00;99.90
12887;DHT22;6511;49.746;6.094;2022-09-09T16:11:58;16.20;99.90
12887;DHT22;6511;49.746;6.094;2022-09-09T16:14:26;16.30;99.90
12887;DHT22;6511;49.746;6.094;2022-09-09T16:16:52;16.30;99.90
12887;DHT22;6511;49.746;6.094;2022-09-09T16:19:18;16.50;99.90
12887;DHT22;6511;49.746;6.094;2022-09-09T16:21:46;16.70;99.90
12887;DHT22;6511;49.746;6.094;2022-09-09T16:24:15;16.90;99.90
12887;DHT22;6511;49.746;6.094;2022-09-09T16:26:43;16.90;99.90
12887;DHT22;6511;49.746;6.094;2022-09-09T16:29:14;16.80;99.90
12887;DHT22;6511;49.746;6.094;2022-09-09T16:31:40;16.70;99.90
12887;DHT22;6511;49.746;6.094;2022-09-09T16:34:07;16.80;99.90
12887;DHT22;6511;49.746;6.094;2022-09-09T16:36:35;16.80;99.90
12887;DHT22;6511;49.746;6.094;2022-09-09T16:39:04;16.80;99.90
12887;DHT22;6511;49.746;6.094;2022-09-09T16:41:31;16.60;99.90
12887;DHT22;6511;49.746;6.094;2022-09-09T16:44:05;16.70;99.90
12887;DHT22;6511;49.746;6.094;2022-09-09T16:46:34;16.70;99.90
12887;DHT22;6511;49.746;6.094;2022-09-09T16:49:01;16.60;99.90
12887;DHT22;6511;49.746;6.094;2022-09-09T16:51:36;16.50;99.90
12887;DHT22;6511;49.746;6.094;2022-09-09T16:54:04;16.40;99.90
12887;DHT22;6511;49.746;6.094;2022-09-09T16:56:33;16.40;99.90
12887;DHT22;6511;49.746;6.094;2022-09-09T16:59:04;16.40;99.90
12887;DHT22;6511;49.746;6.094;2022-09-09T17:01:33;16.30;99.90
12887;DHT22;6511;49.746;6.094;2022-09-09T17:04:02;16.40;99.90
12887;DHT22;6511;49.746;6.094;2022-09-09T17:06:29;16.30;99.90
12887;DHT22;6511;49.746;6.094;2022-09-09T17:08:56;16.30;99.90
12887;DHT22;6511;49.746;6.094;2022-09-09T17:11:22;16.20;99.90
12887;DHT22;6511;49.746;6.094;2022-09-09T17:13:49;16.10;99.90
12887;DHT22;6511;49.746;6.094;2022-09-09T17:16:16;16.10;99.90
12887;DHT22;6511;49.746;6.094;2022-09-09T17:18:42;16.00;99.90
12887;DHT22;6511;49.746;6.094;2022-09-09T17:21:11;16.00;99.90
12887;DHT22;6511;49.746;6.094;2022-09-09T17:23:38;15.90;99.90
12887;DHT22;6511;49.746;6.094;2022-09-09T17:26:10;15.90;99.90
12887;DHT22;6511;49.746;6.094;2022-09-09T17:28:38;15.80;99.90
12887;DHT22;6511;49.746;6.094;2022-09-09T17:31:08;15.80;99.90
12887;DHT22;6511;49.746;6.094;2022-09-09T17:33:36;15.80;99.90
12887;DHT22;6511;49.746;6.094;2022-09-09T17:36:08;15.70;99.90
12887;DHT22;6511;49.746;6.094;2022-09-09T17:38:34;15.80;99.90
12887;DHT22;6511;49.746;6.094;2022-09-09T17:41:05;15.80;99.90
12887;DHT22;6511;49.746;6.094;2022-09-09T17:43:32;15.70;99.90
12887;DHT22;6511;49.746;6.094;2022-09-09T17:46:06;15.60;99.90
12887;DHT22;6511;49.746;6.094;2022-09-09T17:48:31;15.50;99.90
12887;DHT22;6511;49.746;6.094;2022-09-09T17:50:58;15.50;99.90
12887;DHT22;6511;49.746;6.094;2022-09-09T17:53:24;15.30;99.90
12887;DHT22;6511;49.746;6.094;2022-09-09T17:55:51;15.30;99.90
12887;DHT22;6511;49.746;6.094;2022-09-09T17:58:17;15.30;99.90
12887;DHT22;6511;49.746;6.094;2022-09-09T18:00:42;15.20;99.90
12887;DHT22;6511;49.746;6.094;2022-09-09T18:03:08;15.10;99.90
12887;DHT22;6511;49.746;6.094;2022-09-09T18:05:34;15.00;99.90
12887;DHT22;6511;49.746;6.094;2022-09-09T18:08:00;14.90;99.90
12887;DHT22;6511;49.746;6.094;2022-09-09T18:10:25;14.80;99.90
12887;DHT22;6511;49.746;6.094;2022-09-09T18:12:51;14.80;99.90
12887;DHT22;6511;49.746;6.094;2022-09-09T18:15:17;14.80;99.90
12887;DHT22;6511;49.746;6.094;2022-09-09T18:17:42;14.80;99.90
12887;DHT22;6511;49.746;6.094;2022-09-09T18:20:08;14.80;99.90
12887;DHT22;6511;49.746;6.094;2022-09-09T18:22:35;14.70;99.90
12887;DHT22;6511;49.746;6.094;2022-09-09T18:25:01;14.70;99.90
12887;DHT22;6511;49.746;6.094;2022-09-09T18:27:26;14.60;99.90
12887;DHT22;6511;49.746;6.094;2022-09-09T18:29:53;14.60;99.90
12887;DHT22;6511;49.746;6.094;2022-09-09T18:32:22;14.70;99.90
12887;DHT22;6511;49.746;6.094;2022-09-09T18:34:47;14.70;99.90